sensor_id;sensor_type;location;lat;lon;timestamp;P1;durP1;ratioP1;P2;durP2;ratioP2
69754;SDS011;57023;52.218;5.158;2023-10-31T00:02:02;15.45;;;5.20;;
69754;SDS011;57023;52.218;5.158;2023-10-31T00:04:27;18.63;;;6.50;;
69754;SDS011;57023;52.218;5.158;2023-10-31T00:06:53;21.85;;;6.07;;
69754;SDS011;57023;52.218;5.158;2023-10-31T00:09:18;22.90;;;6.63;;
69754;SDS011;57023;52.218;5.158;2023-10-31T00:11:43;19.27;;;7.53;;
69754;SDS011;57023;52.218;5.158;2023-10-31T00:14:09;22.52;;;7.97;;
69754;SDS011;57023;52.218;5.158;2023-10-31T00:16:34;18.33;;;7.68;;
69754;SDS011;57023;52.218;5.158;2023-10-31T00:18:59;29.27;;;9.65;;
69754;SDS011;57023;52.218;5.158;2023-10-31T00:21:25;23.48;;;8.50;;
69754;SDS011;57023;52.218;5.158;2023-10-31T00:23:50;25.15;;;9.20;;
69754;SDS011;57023;52.218;5.158;2023-10-31T00:26:15;26.15;;;8.95;;
69754;SDS011;57023;52.218;5.158;2023-10-31T00:28:41;28.58;;;8.93;;
69754;SDS011;57023;52.218;5.158;2023-10-31T00:31:07;29.38;;;10.93;;
69754;SDS011;57023;52.218;5.158;2023-10-31T00:33:33;34.28;;;11.30;;
69754;SDS011;57023;52.218;5.158;2023-10-31T00:35:59;31.57;;;12.27;;
69754;SDS011;57023;52.218;5.158;2023-10-31T00:38:25;33.88;;;12.15;;
69754;SDS011;57023;52.218;5.158;2023-10-31T00:40:50;40.90;;;11.98;;
69754;SDS011;57023;52.218;5.158;2023-10-31T00:43:15;36.00;;;12.63;;
69754;SDS011;57023;52.218;5.158;2023-10-31T00:45:41;36.67;;;12.73;;
69754;SDS011;57023;52.218;5.158;2023-10-31T00:48:06;34.40;;;12.18;;
69754;SDS011;57023;52.218;5.158;2023-10-31T00:50:31;37.53;;;12.20;;
69754;SDS011;57023;52.218;5.158;2023-10-31T00:52:57;34.67;;;12.10;;
69754;SDS011;57023;52.218;5.158;2023-10-31T00:55:24;35.58;;;12.43;;
69754;SDS011;57023;52.218;5.158;2023-10-31T00:57:50;28.92;;;10.95;;
69754;SDS011;57023;52.218;5.158;2023-10-31T01:00:15;29.35;;;9.80;;
69754;SDS011;57023;52.218;5.158;2023-10-31T01:02:41;29.42;;;10.80;;
69754;SDS011;57023;52.218;5.158;2023-10-31T01:05:06;35.83;;;11.43;;
69754;SDS011;57023;52.218;5.158;2023-10-31T01:07:32;31.92;;;11.35;;
69754;SDS011;57023;52.218;5.158;2023-10-31T01:09:57;30.70;;;10.55;;
69754;SDS011;57023;52.218;5.158;2023-10-31T01:12:23;33.22;;;10.98;;
69754;SDS011;57023;52.218;5.158;2023-10-31T01:14:48;22.98;;;8.82;;
69754;SDS011;57023;52.218;5.158;2023-10-31T01:17:13;25.17;;;9.43;;
69754;SDS011;57023;52.218;5.158;2023-10-31T01:19:39;22.90;;;8.60;;
69754;SDS011;57023;52.218;5.158;2023-10-31T01:22:04;24.63;;;8.25;;
69754;SDS011;57023;52.218;5.158;2023-10-31T01:24:29;12.93;;;5.85;;
69754;SDS011;57023;52.218;5.158;2023-10-31T01:26:55;13.60;;;5.38;;
69754;SDS011;57023;52.218;5.158;2023-10-31T01:29:20;18.27;;;6.07;;
69754;SDS011;57023;52.218;5.158;2023-10-31T01:31:45;17.05;;;5.47;;
69754;SDS011;57023;52.218;5.158;2023-10-31T01:34:11;12.07;;;4.82;;
69754;SDS011;57023;52.218;5.158;2023-10-31T01:36:36;10.18;;;4.43;;
69754;SDS011;57023;52.218;5.158;2023-10-31T01:39:01;12.43;;;4.68;;
69754;SDS011;57023;52.218;5.158;2023-10-31T01:41:27;13.30;;;4.97;;
69754;SDS011;57023;52.218;5.158;2023-10-31T01:43:52;14.85;;;4.97;;
69754;SDS011;57023;52.218;5.158;2023-10-31T01:46:18;15.98;;;5.90;;
69754;SDS011;57023;52.218;5.158;2023-10-31T01:48:43;13.30;;;5.78;;
69754;SDS011;57023;52.218;5.158;2023-10-31T01:51:08;14.40;;;6.18;;
69754;SDS011;57023;52.218;5.158;2023-10-31T01:53:34;14.82;;;6.05;;
69754;SDS011;57023;52.218;5.158;2023-10-31T01:56:00;14.63;;;5.93;;
69754;SDS011;57023;52.218;5.158;2023-10-31T01:58:36;13.70;;;6.03;;
69754;SDS011;57023;52.218;5.158;2023-10-31T02:01:02;19.58;;;6.88;;
69754;SDS011;57023;52.218;5.158;2023-10-31T02:03:29;23.23;;;8.02;;
69754;SDS011;57023;52.218;5.158;2023-10-31T02:05:55;23.08;;;8.10;;
69754;SDS011;57023;52.218;5.158;2023-10-31T02:08:21;21.50;;;6.80;;
69754;SDS011;57023;52.218;5.158;2023-10-31T02:10:46;17.73;;;6.93;;
69754;SDS011;57023;52.218;5.158;2023-10-31T02:15:38;27.92;;;10.73;;
69754;SDS011;57023;52.218;5.158;2023-10-31T02:18:03;34.28;;;11.65;;
69754;SDS011;57023;52.218;5.158;2023-10-31T02:20:29;23.55;;;9.75;;
69754;SDS011;57023;52.218;5.158;2023-10-31T02:22:54;37.40;;;12.57;;
69754;SDS011;57023;52.218;5.158;2023-10-31T02:25:19;37.78;;;13.43;;
69754;SDS011;57023;52.218;5.158;2023-10-31T02:27:45;35.90;;;13.82;;
69754;SDS011;57023;52.218;5.158;2023-10-31T02:30:10;45.53;;;15.50;;
69754;SDS011;57023;52.218;5.158;2023-10-31T02:32:36;41.72;;;14.63;;
69754;SDS011;57023;52.218;5.158;2023-10-31T02:35:01;39.88;;;14.68;;
69754;SDS011;57023;52.218;5.158;2023-10-31T02:37:27;36.35;;;13.63;;
69754;SDS011;57023;52.218;5.158;2023-10-31T02:39:52;33.75;;;12.77;;
69754;SDS011;57023;52.218;5.158;2023-10-31T02:42:17;38.33;;;12.40;;
69754;SDS011;57023;52.218;5.158;2023-10-31T02:44:43;33.58;;;11.48;;
69754;SDS011;57023;52.218;5.158;2023-10-31T02:47:08;30.83;;;10.82;;
69754;SDS011;57023;52.218;5.158;2023-10-31T02:49:33;30.23;;;9.02;;
69754;SDS011;57023;52.218;5.158;2023-10-31T02:51:59;25.67;;;9.30;;
69754;SDS011;57023;52.218;5.158;2023-10-31T02:54:24;25.92;;;8.23;;
69754;SDS011;57023;52.218;5.158;2023-10-31T02:56:49;21.42;;;8.35;;
69754;SDS011;57023;52.218;5.158;2023-10-31T02:59:14;15.73;;;7.07;;
69754;SDS011;57023;52.218;5.158;2023-10-31T03:01:40;20.45;;;6.30;;
69754;SDS011;57023;52.218;5.158;2023-10-31T03:04:05;13.73;;;5.90;;
69754;SDS011;57023;52.218;5.158;2023-10-31T03:06:30;17.85;;;5.63;;
69754;SDS011;57023;52.218;5.158;2023-10-31T03:08:56;14.35;;;5.65;;
69754;SDS011;57023;52.218;5.158;2023-10-31T03:11:25;12.98;;;4.50;;
69754;SDS011;57023;52.218;5.158;2023-10-31T03:13:51;10.10;;;3.88;;
69754;SDS011;57023;52.218;5.158;2023-10-31T03:16:17;10.67;;;3.47;;
69754;SDS011;57023;52.218;5.158;2023-10-31T03:18:43;13.23;;;3.20;;
69754;SDS011;57023;52.218;5.158;2023-10-31T03:21:08;9.38;;;3.38;;
69754;SDS011;57023;52.218;5.158;2023-10-31T03:23:33;9.00;;;3.22;;
69754;SDS011;57023;52.218;5.158;2023-10-31T03:25:58;8.05;;;2.80;;
69754;SDS011;57023;52.218;5.158;2023-10-31T03:28:24;7.47;;;2.58;;
69754;SDS011;57023;52.218;5.158;2023-10-31T03:30:49;8.40;;;2.63;;
69754;SDS011;57023;52.218;5.158;2023-10-31T03:33:16;9.02;;;2.50;;
69754;SDS011;57023;52.218;5.158;2023-10-31T03:35:41;8.32;;;2.67;;
69754;SDS011;57023;52.218;5.158;2023-10-31T03:38:07;7.53;;;2.70;;
69754;SDS011;57023;52.218;5.158;2023-10-31T03:40:32;8.55;;;2.60;;
69754;SDS011;57023;52.218;5.158;2023-10-31T03:42:57;6.32;;;2.60;;
69754;SDS011;57023;52.218;5.158;2023-10-31T03:45:23;10.02;;;2.60;;
69754;SDS011;57023;52.218;5.158;2023-10-31T03:47:48;6.32;;;2.60;;
69754;SDS011;57023;52.218;5.158;2023-10-31T03:50:13;8.43;;;2.50;;
69754;SDS011;57023;52.218;5.158;2023-10-31T03:52:39;6.85;;;2.20;;
69754;SDS011;57023;52.218;5.158;2023-10-31T03:55:04;7.30;;;2.55;;
69754;SDS011;57023;52.218;5.158;2023-10-31T03:57:30;6.03;;;2.08;;
69754;SDS011;57023;52.218;5.158;2023-10-31T03:59:55;6.03;;;2.15;;
69754;SDS011;57023;52.218;5.158;2023-10-31T04:02:21;6.88;;;2.10;;
69754;SDS011;57023;52.218;5.158;2023-10-31T04:04:46;6.57;;;2.20;;
69754;SDS011;57023;52.218;5.158;2023-10-31T04:07:11;5.53;;;2.15;;
69754;SDS011;57023;52.218;5.158;2023-10-31T04:09:36;5.28;;;1.90;;
69754;SDS011;57023;52.218;5.158;2023-10-31T04:12:02;7.30;;;2.10;;
69754;SDS011;57023;52.218;5.158;2023-10-31T04:14:27;6.82;;;1.80;;
69754;SDS011;57023;52.218;5.158;2023-10-31T04:16:53;6.40;;;1.95;;
69754;SDS011;57023;52.218;5.158;2023-10-31T04:19:18;4.45;;;1.77;;
69754;SDS011;57023;52.218;5.158;2023-10-31T04:21:43;5.78;;;2.20;;
69754;SDS011;57023;52.218;5.158;2023-10-31T04:24:11;4.82;;;1.90;;
69754;SDS011;57023;52.218;5.158;2023-10-31T04:26:37;6.85;;;1.88;;
69754;SDS011;57023;52.218;5.158;2023-10-31T04:29:02;4.75;;;1.90;;
69754;SDS011;57023;52.218;5.158;2023-10-31T04:31:27;5.70;;;2.00;;
69754;SDS011;57023;52.218;5.158;2023-10-31T04:33:52;3.22;;;1.50;;
69754;SDS011;57023;52.218;5.158;2023-10-31T04:36:18;6.63;;;1.70;;
69754;SDS011;57023;52.218;5.158;2023-10-31T04:38:43;4.93;;;1.70;;
69754;SDS011;57023;52.218;5.158;2023-10-31T04:41:08;7.22;;;1.45;;
69754;SDS011;57023;52.218;5.158;2023-10-31T04:43:34;5.57;;;1.77;;
69754;SDS011;57023;52.218;5.158;2023-10-31T04:46:00;5.97;;;1.67;;
69754;SDS011;57023;52.218;5.158;2023-10-31T04:48:25;5.32;;;1.60;;
69754;SDS011;57023;52.218;5.158;2023-10-31T04:50:51;6.95;;;1.60;;
69754;SDS011;57023;52.218;5.158;2023-10-31T04:53:16;5.85;;;1.50;;
69754;SDS011;57023;52.218;5.158;2023-10-31T04:55:41;3.65;;;1.52;;
69754;SDS011;57023;52.218;5.158;2023-10-31T04:58:07;3.20;;;1.33;;
69754;SDS011;57023;52.218;5.158;2023-10-31T05:00:32;8.52;;;1.67;;
69754;SDS011;57023;52.218;5.158;2023-10-31T05:02:57;3.17;;;1.52;;
69754;SDS011;57023;52.218;5.158;2023-10-31T05:05:23;6.30;;;1.60;;
69754;SDS011;57023;52.218;5.158;2023-10-31T05:07:48;5.28;;;1.73;;
69754;SDS011;57023;52.218;5.158;2023-10-31T05:10:14;4.22;;;1.60;;
69754;SDS011;57023;52.218;5.158;2023-10-31T05:12:39;7.32;;;1.90;;
69754;SDS011;57023;52.218;5.158;2023-10-31T05:15:04;5.22;;;1.63;;
69754;SDS011;57023;52.218;5.158;2023-10-31T05:17:30;4.50;;;1.80;;
69754;SDS011;57023;52.218;5.158;2023-10-31T05:19:55;7.53;;;2.10;;
69754;SDS011;57023;52.218;5.158;2023-10-31T05:22:21;3.83;;;1.63;;
69754;SDS011;57023;52.218;5.158;2023-10-31T05:24:46;4.85;;;1.75;;
69754;SDS011;57023;52.218;5.158;2023-10-31T05:27:11;7.35;;;2.00;;
69754;SDS011;57023;52.218;5.158;2023-10-31T05:29:38;5.80;;;1.90;;
69754;SDS011;57023;52.218;5.158;2023-10-31T05:32:04;3.33;;;1.67;;
69754;SDS011;57023;52.218;5.158;2023-10-31T05:34:29;4.60;;;2.00;;
69754;SDS011;57023;52.218;5.158;2023-10-31T05:36:54;2.85;;;1.60;;
69754;SDS011;57023;52.218;5.158;2023-10-31T05:39:20;4.55;;;1.95;;
69754;SDS011;57023;52.218;5.158;2023-10-31T05:41:45;5.68;;;1.80;;
69754;SDS011;57023;52.218;5.158;2023-10-31T05:44:10;5.78;;;2.00;;
69754;SDS011;57023;52.218;5.158;2023-10-31T05:46:39;6.32;;;2.17;;
69754;SDS011;57023;52.218;5.158;2023-10-31T05:49:06;6.10;;;2.42;;
69754;SDS011;57023;52.218;5.158;2023-10-31T05:51:35;5.15;;;2.42;;
69754;SDS011;57023;52.218;5.158;2023-10-31T05:54:00;6.35;;;2.75;;
69754;SDS011;57023;52.218;5.158;2023-10-31T05:56:26;5.47;;;2.42;;
69754;SDS011;57023;52.218;5.158;2023-10-31T05:58:51;8.38;;;3.65;;
69754;SDS011;57023;52.218;5.158;2023-10-31T06:01:17;7.93;;;3.65;;
69754;SDS011;57023;52.218;5.158;2023-10-31T06:03:42;9.65;;;4.03;;
69754;SDS011;57023;52.218;5.158;2023-10-31T06:06:11;8.45;;;3.88;;
69754;SDS011;57023;52.218;5.158;2023-10-31T06:08:37;11.18;;;4.60;;
69754;SDS011;57023;52.218;5.158;2023-10-31T06:11:03;10.50;;;4.75;;
69754;SDS011;57023;52.218;5.158;2023-10-31T06:13:29;11.43;;;4.95;;
69754;SDS011;57023;52.218;5.158;2023-10-31T06:15:56;10.40;;;5.15;;
69754;SDS011;57023;52.218;5.158;2023-10-31T06:18:22;14.37;;;5.63;;
69754;SDS011;57023;52.218;5.158;2023-10-31T06:20:48;6.60;;;3.53;;
69754;SDS011;57023;52.218;5.158;2023-10-31T06:23:13;9.75;;;4.22;;
69754;SDS011;57023;52.218;5.158;2023-10-31T06:25:39;11.73;;;5.65;;
69754;SDS011;57023;52.218;5.158;2023-10-31T06:28:04;11.23;;;5.20;;
69754;SDS011;57023;52.218;5.158;2023-10-31T06:30:29;13.23;;;4.70;;
69754;SDS011;57023;52.218;5.158;2023-10-31T06:32:54;14.32;;;5.60;;
69754;SDS011;57023;52.218;5.158;2023-10-31T06:35:20;14.73;;;6.20;;
69754;SDS011;57023;52.218;5.158;2023-10-31T06:37:45;16.02;;;6.55;;
69754;SDS011;57023;52.218;5.158;2023-10-31T06:40:11;17.10;;;6.88;;
69754;SDS011;57023;52.218;5.158;2023-10-31T06:42:36;17.08;;;7.05;;
69754;SDS011;57023;52.218;5.158;2023-10-31T06:45:01;20.15;;;7.70;;
69754;SDS011;57023;52.218;5.158;2023-10-31T06:47:27;21.40;;;8.20;;
69754;SDS011;57023;52.218;5.158;2023-10-31T06:49:52;23.98;;;9.60;;
69754;SDS011;57023;52.218;5.158;2023-10-31T06:52:18;21.58;;;9.63;;
69754;SDS011;57023;52.218;5.158;2023-10-31T06:54:43;11.63;;;5.03;;
69754;SDS011;57023;52.218;5.158;2023-10-31T06:57:08;17.17;;;8.05;;
69754;SDS011;57023;52.218;5.158;2023-10-31T06:59:34;23.58;;;10.88;;
69754;SDS011;57023;52.218;5.158;2023-10-31T07:01:59;18.17;;;9.77;;
69754;SDS011;57023;52.218;5.158;2023-10-31T07:04:25;14.73;;;7.50;;
69754;SDS011;57023;52.218;5.158;2023-10-31T07:06:50;21.60;;;7.25;;
69754;SDS011;57023;52.218;5.158;2023-10-31T07:09:22;10.38;;;5.85;;
69754;SDS011;57023;52.218;5.158;2023-10-31T07:11:47;17.58;;;8.50;;
69754;SDS011;57023;52.218;5.158;2023-10-31T07:14:13;15.23;;;8.25;;
69754;SDS011;57023;52.218;5.158;2023-10-31T07:16:38;14.77;;;7.20;;
69754;SDS011;57023;52.218;5.158;2023-10-31T07:19:04;13.30;;;6.47;;
69754;SDS011;57023;52.218;5.158;2023-10-31T07:21:29;12.65;;;6.45;;
69754;SDS011;57023;52.218;5.158;2023-10-31T07:23:54;11.57;;;6.22;;
69754;SDS011;57023;52.218;5.158;2023-10-31T07:26:20;11.95;;;6.32;;
69754;SDS011;57023;52.218;5.158;2023-10-31T07:28:46;7.80;;;4.50;;
69754;SDS011;57023;52.218;5.158;2023-10-31T07:31:12;12.27;;;5.57;;
69754;SDS011;57023;52.218;5.158;2023-10-31T07:33:37;7.18;;;3.28;;
69754;SDS011;57023;52.218;5.158;2023-10-31T07:36:03;12.07;;;4.32;;
69754;SDS011;57023;52.218;5.158;2023-10-31T07:38:28;12.70;;;5.25;;
69754;SDS011;57023;52.218;5.158;2023-10-31T07:40:54;13.80;;;5.15;;
69754;SDS011;57023;52.218;5.158;2023-10-31T07:43:20;12.35;;;4.82;;
69754;SDS011;57023;52.218;5.158;2023-10-31T07:45:46;8.50;;;4.32;;
69754;SDS011;57023;52.218;5.158;2023-10-31T07:48:12;7.80;;;4.13;;
69754;SDS011;57023;52.218;5.158;2023-10-31T07:50:37;9.18;;;4.45;;
69754;SDS011;57023;52.218;5.158;2023-10-31T07:53:02;10.10;;;4.50;;
69754;SDS011;57023;52.218;5.158;2023-10-31T07:55:28;11.10;;;3.80;;
69754;SDS011;57023;52.218;5.158;2023-10-31T07:57:53;9.50;;;4.47;;
69754;SDS011;57023;52.218;5.158;2023-10-31T08:00:18;8.27;;;4.40;;
69754;SDS011;57023;52.218;5.158;2023-10-31T08:02:44;10.98;;;4.32;;
69754;SDS011;57023;52.218;5.158;2023-10-31T08:05:10;9.20;;;4.20;;
69754;SDS011;57023;52.218;5.158;2023-10-31T08:07:35;10.95;;;3.90;;
69754;SDS011;57023;52.218;5.158;2023-10-31T08:10:00;9.85;;;4.20;;
69754;SDS011;57023;52.218;5.158;2023-10-31T08:12:26;7.10;;;3.90;;
69754;SDS011;57023;52.218;5.158;2023-10-31T08:14:51;9.95;;;4.30;;
69754;SDS011;57023;52.218;5.158;2023-10-31T08:17:17;12.32;;;4.40;;
69754;SDS011;57023;52.218;5.158;2023-10-31T08:19:42;11.38;;;4.88;;
69754;SDS011;57023;52.218;5.158;2023-10-31T08:22:07;9.25;;;4.30;;
69754;SDS011;57023;52.218;5.158;2023-10-31T08:24:33;11.40;;;4.30;;
69754;SDS011;57023;52.218;5.158;2023-10-31T08:27:00;10.60;;;4.03;;
69754;SDS011;57023;52.218;5.158;2023-10-31T08:29:27;13.45;;;4.50;;
69754;SDS011;57023;52.218;5.158;2023-10-31T08:31:52;10.00;;;4.30;;
69754;SDS011;57023;52.218;5.158;2023-10-31T08:34:17;8.52;;;4.28;;
69754;SDS011;57023;52.218;5.158;2023-10-31T08:36:43;11.38;;;4.78;;
69754;SDS011;57023;52.218;5.158;2023-10-31T08:39:08;9.68;;;4.53;;
69754;SDS011;57023;52.218;5.158;2023-10-31T08:41:33;9.73;;;4.45;;
69754;SDS011;57023;52.218;5.158;2023-10-31T08:43:59;10.23;;;4.22;;
69754;SDS011;57023;52.218;5.158;2023-10-31T08:46:26;13.20;;;4.70;;
69754;SDS011;57023;52.218;5.158;2023-10-31T08:48:51;10.60;;;4.80;;
69754;SDS011;57023;52.218;5.158;2023-10-31T08:51:17;10.57;;;4.63;;
69754;SDS011;57023;52.218;5.158;2023-10-31T08:53:42;12.55;;;4.57;;
69754;SDS011;57023;52.218;5.158;2023-10-31T08:56:07;10.88;;;4.68;;
69754;SDS011;57023;52.218;5.158;2023-10-31T08:58:33;11.07;;;4.45;;
69754;SDS011;57023;52.218;5.158;2023-10-31T09:00:58;12.93;;;5.45;;
69754;SDS011;57023;52.218;5.158;2023-10-31T09:03:23;11.20;;;5.47;;
69754;SDS011;57023;52.218;5.158;2023-10-31T09:05:49;13.88;;;4.68;;
69754;SDS011;57023;52.218;5.158;2023-10-31T09:08:14;14.45;;;5.50;;
69754;SDS011;57023;52.218;5.158;2023-10-31T09:10:39;13.88;;;5.05;;
69754;SDS011;57023;52.218;5.158;2023-10-31T09:13:07;11.38;;;5.18;;
69754;SDS011;57023;52.218;5.158;2023-10-31T09:15:32;9.90;;;4.80;;
69754;SDS011;57023;52.218;5.158;2023-10-31T09:17:58;13.18;;;4.72;;
69754;SDS011;57023;52.218;5.158;2023-10-31T09:20:23;14.43;;;5.10;;
69754;SDS011;57023;52.218;5.158;2023-10-31T09:22:48;12.57;;;5.35;;
69754;SDS011;57023;52.218;5.158;2023-10-31T09:25:14;10.48;;;4.90;;
69754;SDS011;57023;52.218;5.158;2023-10-31T09:27:40;11.88;;;4.80;;
69754;SDS011;57023;52.218;5.158;2023-10-31T09:30:06;13.07;;;6.25;;
69754;SDS011;57023;52.218;5.158;2023-10-31T09:32:32;17.52;;;5.60;;
69754;SDS011;57023;52.218;5.158;2023-10-31T09:34:57;12.77;;;5.28;;
69754;SDS011;57023;52.218;5.158;2023-10-31T09:37:23;15.80;;;5.82;;
69754;SDS011;57023;52.218;5.158;2023-10-31T09:39:48;14.65;;;5.80;;
69754;SDS011;57023;52.218;5.158;2023-10-31T09:42:13;12.35;;;5.68;;
69754;SDS011;57023;52.218;5.158;2023-10-31T09:44:39;13.15;;;5.32;;
69754;SDS011;57023;52.218;5.158;2023-10-31T09:47:05;13.85;;;5.38;;
69754;SDS011;57023;52.218;5.158;2023-10-31T09:49:31;18.17;;;5.70;;
69754;SDS011;57023;52.218;5.158;2023-10-31T09:51:56;14.73;;;5.43;;
69754;SDS011;57023;52.218;5.158;2023-10-31T09:54:21;13.05;;;5.85;;
69754;SDS011;57023;52.218;5.158;2023-10-31T09:56:48;17.17;;;6.03;;
69754;SDS011;57023;52.218;5.158;2023-10-31T09:59:16;14.82;;;6.70;;
69754;SDS011;57023;52.218;5.158;2023-10-31T10:01:41;13.95;;;5.90;;
69754;SDS011;57023;52.218;5.158;2023-10-31T10:04:07;16.35;;;6.65;;
69754;SDS011;57023;52.218;5.158;2023-10-31T10:06:32;16.85;;;6.00;;
69754;SDS011;57023;52.218;5.158;2023-10-31T10:09:00;12.38;;;5.43;;
69754;SDS011;57023;52.218;5.158;2023-10-31T10:11:31;12.10;;;5.47;;
69754;SDS011;57023;52.218;5.158;2023-10-31T10:13:57;12.27;;;4.75;;
69754;SDS011;57023;52.218;5.158;2023-10-31T10:16:32;13.82;;;5.03;;
69754;SDS011;57023;52.218;5.158;2023-10-31T10:19:13;10.40;;;4.03;;
69754;SDS011;57023;52.218;5.158;2023-10-31T10:21:54;9.95;;;3.22;;
69754;SDS011;57023;52.218;5.158;2023-10-31T10:24:21;9.27;;;2.75;;
69754;SDS011;57023;52.218;5.158;2023-10-31T10:26:47;8.68;;;3.22;;
69754;SDS011;57023;52.218;5.158;2023-10-31T10:29:13;10.07;;;3.33;;
69754;SDS011;57023;52.218;5.158;2023-10-31T10:31:39;8.85;;;3.10;;
69754;SDS011;57023;52.218;5.158;2023-10-31T10:34:05;12.43;;;3.47;;
69754;SDS011;57023;52.218;5.158;2023-10-31T10:36:32;10.93;;;3.05;;
69754;SDS011;57023;52.218;5.158;2023-10-31T10:38:58;9.10;;;3.13;;
69754;SDS011;57023;52.218;5.158;2023-10-31T10:41:24;14.52;;;3.60;;
69754;SDS011;57023;52.218;5.158;2023-10-31T10:43:53;10.93;;;3.60;;
69754;SDS011;57023;52.218;5.158;2023-10-31T10:46:20;16.08;;;3.97;;
69754;SDS011;57023;52.218;5.158;2023-10-31T10:48:47;11.17;;;4.20;;
69754;SDS011;57023;52.218;5.158;2023-10-31T10:51:24;13.50;;;4.72;;
69754;SDS011;57023;52.218;5.158;2023-10-31T10:53:58;13.15;;;4.65;;
69754;SDS011;57023;52.218;5.158;2023-10-31T10:56:37;13.75;;;5.35;;
69754;SDS011;57023;52.218;5.158;2023-10-31T10:59:07;12.30;;;5.10;;
69754;SDS011;57023;52.218;5.158;2023-10-31T11:01:36;13.30;;;5.13;;
69754;SDS011;57023;52.218;5.158;2023-10-31T11:04:02;13.02;;;5.60;;
69754;SDS011;57023;52.218;5.158;2023-10-31T11:06:28;14.02;;;5.68;;
69754;SDS011;57023;52.218;5.158;2023-10-31T11:08:54;12.15;;;5.20;;
69754;SDS011;57023;52.218;5.158;2023-10-31T11:11:20;14.07;;;5.25;;
69754;SDS011;57023;52.218;5.158;2023-10-31T11:13:46;17.98;;;5.20;;
69754;SDS011;57023;52.218;5.158;2023-10-31T11:16:23;9.82;;;4.68;;
69754;SDS011;57023;52.218;5.158;2023-10-31T11:18:52;12.55;;;4.22;;
69754;SDS011;57023;52.218;5.158;2023-10-31T11:21:18;9.00;;;4.03;;
69754;SDS011;57023;52.218;5.158;2023-10-31T11:23:43;13.25;;;5.43;;
69754;SDS011;57023;52.218;5.158;2023-10-31T11:26:08;14.48;;;5.60;;
69754;SDS011;57023;52.218;5.158;2023-10-31T11:28:34;13.85;;;5.32;;
69754;SDS011;57023;52.218;5.158;2023-10-31T11:31:00;13.45;;;5.45;;
69754;SDS011;57023;52.218;5.158;2023-10-31T11:33:27;8.68;;;3.80;;
69754;SDS011;57023;52.218;5.158;2023-10-31T11:36:03;5.63;;;2.60;;
69754;SDS011;57023;52.218;5.158;2023-10-31T11:38:35;9.05;;;3.47;;
69754;SDS011;57023;52.218;5.158;2023-10-31T11:41:02;7.28;;;3.13;;
69754;SDS011;57023;52.218;5.158;2023-10-31T11:46:05;5.85;;;2.95;;
69754;SDS011;57023;52.218;5.158;2023-10-31T11:48:45;9.50;;;3.55;;
69754;SDS011;57023;52.218;5.158;2023-10-31T11:51:16;8.75;;;3.50;;
69754;SDS011;57023;52.218;5.158;2023-10-31T11:53:41;9.45;;;3.30;;
69754;SDS011;57023;52.218;5.158;2023-10-31T11:58:34;9.05;;;3.10;;
69754;SDS011;57023;52.218;5.158;2023-10-31T12:01:06;7.40;;;2.92;;
69754;SDS011;57023;52.218;5.158;2023-10-31T12:03:40;7.45;;;3.10;;
69754;SDS011;57023;52.218;5.158;2023-10-31T12:06:06;9.38;;;3.20;;
69754;SDS011;57023;52.218;5.158;2023-10-31T12:08:35;7.22;;;3.05;;
69754;SDS011;57023;52.218;5.158;2023-10-31T12:13:29;8.32;;;3.70;;
69754;SDS011;57023;52.218;5.158;2023-10-31T12:15:55;9.35;;;4.03;;
69754;SDS011;57023;52.218;5.158;2023-10-31T12:18:20;9.20;;;4.35;;
69754;SDS011;57023;52.218;5.158;2023-10-31T12:20:49;12.07;;;5.63;;
69754;SDS011;57023;52.218;5.158;2023-10-31T12:23:15;10.18;;;4.63;;
69754;SDS011;57023;52.218;5.158;2023-10-31T12:25:53;6.63;;;3.83;;
69754;SDS011;57023;52.218;5.158;2023-10-31T12:30:48;19.30;;;6.72;;
69754;SDS011;57023;52.218;5.158;2023-10-31T12:33:15;11.10;;;5.30;;
69754;SDS011;57023;52.218;5.158;2023-10-31T12:35:41;18.70;;;8.70;;
69754;SDS011;57023;52.218;5.158;2023-10-31T12:38:13;21.48;;;9.50;;
69754;SDS011;57023;52.218;5.158;2023-10-31T12:40:42;26.35;;;11.57;;
69754;SDS011;57023;52.218;5.158;2023-10-31T12:43:08;26.27;;;12.43;;
69754;SDS011;57023;52.218;5.158;2023-10-31T12:45:35;27.73;;;12.43;;
69754;SDS011;57023;52.218;5.158;2023-10-31T12:48:04;22.70;;;10.68;;
69754;SDS011;57023;52.218;5.158;2023-10-31T12:50:31;23.95;;;10.43;;
69754;SDS011;57023;52.218;5.158;2023-10-31T12:53:01;23.75;;;9.93;;
69754;SDS011;57023;52.218;5.158;2023-10-31T12:55:28;27.67;;;11.25;;
69754;SDS011;57023;52.218;5.158;2023-10-31T12:57:55;28.80;;;12.00;;
69754;SDS011;57023;52.218;5.158;2023-10-31T13:00:20;28.77;;;13.02;;
69754;SDS011;57023;52.218;5.158;2023-10-31T13:02:50;31.95;;;13.25;;
69754;SDS011;57023;52.218;5.158;2023-10-31T13:05:16;28.83;;;12.50;;
69754;SDS011;57023;52.218;5.158;2023-10-31T13:07:48;27.88;;;11.70;;
69754;SDS011;57023;52.218;5.158;2023-10-31T13:10:15;39.45;;;14.95;;
69754;SDS011;57023;52.218;5.158;2023-10-31T13:12:47;40.75;;;15.35;;
69754;SDS011;57023;52.218;5.158;2023-10-31T13:15:13;39.03;;;16.30;;
69754;SDS011;57023;52.218;5.158;2023-10-31T13:17:39;42.83;;;17.03;;
69754;SDS011;57023;52.218;5.158;2023-10-31T13:20:07;42.67;;;16.80;;
69754;SDS011;57023;52.218;5.158;2023-10-31T13:22:36;38.67;;;16.50;;
69754;SDS011;57023;52.218;5.158;2023-10-31T13:25:02;39.42;;;16.45;;
69754;SDS011;57023;52.218;5.158;2023-10-31T13:27:30;41.80;;;17.00;;
69754;SDS011;57023;52.218;5.158;2023-10-31T13:29:56;40.70;;;16.83;;
69754;SDS011;57023;52.218;5.158;2023-10-31T13:32:21;46.28;;;17.20;;
69754;SDS011;57023;52.218;5.158;2023-10-31T13:34:47;42.63;;;15.43;;
69754;SDS011;57023;52.218;5.158;2023-10-31T13:37:13;40.38;;;14.85;;
69754;SDS011;57023;52.218;5.158;2023-10-31T13:39:38;36.70;;;14.73;;
69754;SDS011;57023;52.218;5.158;2023-10-31T13:42:04;36.85;;;16.58;;
69754;SDS011;57023;52.218;5.158;2023-10-31T13:44:29;32.42;;;14.63;;
69754;SDS011;57023;52.218;5.158;2023-10-31T13:46:54;35.17;;;14.90;;
69754;SDS011;57023;52.218;5.158;2023-10-31T13:49:20;37.05;;;14.70;;
69754;SDS011;57023;52.218;5.158;2023-10-31T13:51:46;38.30;;;14.13;;
69754;SDS011;57023;52.218;5.158;2023-10-31T13:54:11;40.10;;;13.90;;
69754;SDS011;57023;52.218;5.158;2023-10-31T13:56:37;23.92;;;11.32;;
69754;SDS011;57023;52.218;5.158;2023-10-31T13:59:02;27.13;;;11.18;;
69754;SDS011;57023;52.218;5.158;2023-10-31T14:01:27;36.85;;;15.18;;
69754;SDS011;57023;52.218;5.158;2023-10-31T14:03:53;30.35;;;13.30;;
69754;SDS011;57023;52.218;5.158;2023-10-31T14:06:19;40.30;;;16.73;;
69754;SDS011;57023;52.218;5.158;2023-10-31T14:08:44;45.97;;;18.33;;
69754;SDS011;57023;52.218;5.158;2023-10-31T14:11:10;43.30;;;18.02;;
69754;SDS011;57023;52.218;5.158;2023-10-31T14:13:35;35.83;;;15.55;;
69754;SDS011;57023;52.218;5.158;2023-10-31T14:16:01;47.38;;;19.27;;
69754;SDS011;57023;52.218;5.158;2023-10-31T14:18:27;41.10;;;15.45;;
69754;SDS011;57023;52.218;5.158;2023-10-31T14:20:52;52.80;;;20.13;;
69754;SDS011;57023;52.218;5.158;2023-10-31T14:23:17;50.65;;;21.50;;
69754;SDS011;57023;52.218;5.158;2023-10-31T14:25:43;47.92;;;19.20;;
69754;SDS011;57023;52.218;5.158;2023-10-31T14:28:08;55.88;;;19.38;;
69754;SDS011;57023;52.218;5.158;2023-10-31T14:30:33;53.47;;;20.15;;
69754;SDS011;57023;52.218;5.158;2023-10-31T14:32:59;55.30;;;20.83;;
69754;SDS011;57023;52.218;5.158;2023-10-31T14:35:24;52.03;;;19.80;;
69754;SDS011;57023;52.218;5.158;2023-10-31T14:37:49;52.33;;;20.25;;
69754;SDS011;57023;52.218;5.158;2023-10-31T14:40:15;42.75;;;17.00;;
69754;SDS011;57023;52.218;5.158;2023-10-31T14:42:40;37.97;;;16.92;;